sensor_id;sensor_type;location;lat;lon;timestamp;P1;durP1;ratioP1;P2;durP2;ratioP2
9964;SDS011;5023;53.554;9.964;2023-04-24T00:01:25;9.23;;;8.35;;
9964;SDS011;5023;53.554;9.964;2023-04-24T00:06:26;10.50;;;9.50;;
9964;SDS011;5023;53.554;9.964;2023-04-24T00:11:34;8.15;;;7.45;;
9964;SDS011;5023;53.554;9.964;2023-04-24T00:16:36;8.00;;;7.30;;
9964;SDS011;5023;53.554;9.964;2023-04-24T00:21:38;9.82;;;8.82;;
9964;SDS011;5023;53.554;9.964;2023-04-24T00:26:42;8.95;;;8.15;;
9964;SDS011;5023;53.554;9.964;2023-04-24T00:31:44;8.20;;;7.55;;
9964;SDS011;5023;53.554;9.964;2023-04-24T00:36:46;8.23;;;7.43;;
9964;SDS011;5023;53.554;9.964;2023-04-24T00:41:51;7.97;;;7.30;;
9964;SDS011;5023;53.554;9.964;2023-04-24T00:46:55;7.50;;;6.90;;
9964;SDS011;5023;53.554;9.964;2023-04-24T00:51:57;7.45;;;6.85;;
9964;SDS011;5023;53.554;9.964;2023-04-24T00:57:01;7.55;;;6.85;;
9964;SDS011;5023;53.554;9.964;2023-04-24T01:02:04;7.53;;;6.87;;
9964;SDS011;5023;53.554;9.964;2023-04-24T01:07:06;7.70;;;7.00;;
9964;SDS011;5023;53.554;9.964;2023-04-24T01:12:12;7.97;;;7.27;;
9964;SDS011;5023;53.554;9.964;2023-04-24T01:17:13;6.95;;;6.45;;
9964;SDS011;5023;53.554;9.964;2023-04-24T01:22:17;7.30;;;6.70;;
9964;SDS011;5023;53.554;9.964;2023-04-24T01:27:19;7.28;;;6.53;;
9964;SDS011;5023;53.554;9.964;2023-04-24T01:32:21;7.45;;;5.95;;
9964;SDS011;5023;53.554;9.964;2023-04-24T01:37:24;6.25;;;5.75;;
9964;SDS011;5023;53.554;9.964;2023-04-24T01:42:27;6.10;;;5.55;;
9964;SDS011;5023;53.554;9.964;2023-04-24T01:47:29;5.83;;;5.30;;
9964;SDS011;5023;53.554;9.964;2023-04-24T01:52:33;5.13;;;4.60;;
9964;SDS011;5023;53.554;9.964;2023-04-24T01:57:36;4.32;;;3.92;;
9964;SDS011;5023;53.554;9.964;2023-04-24T02:02:38;4.97;;;4.00;;
9964;SDS011;5023;53.554;9.964;2023-04-24T02:07:42;3.55;;;3.28;;
9964;SDS011;5023;53.554;9.964;2023-04-24T02:12:44;4.57;;;3.42;;
9964;SDS011;5023;53.554;9.964;2023-04-24T02:17:46;3.85;;;3.55;;
9964;SDS011;5023;53.554;9.964;2023-04-24T02:22:49;3.33;;;3.10;;
9964;SDS011;5023;53.554;9.964;2023-04-24T02:27:51;3.50;;;3.20;;
9964;SDS011;5023;53.554;9.964;2023-04-24T02:32:53;3.50;;;3.20;;
9964;SDS011;5023;53.554;9.964;2023-04-24T02:37:56;3.20;;;3.00;;
9964;SDS011;5023;53.554;9.964;2023-04-24T02:42:58;4.28;;;3.50;;
9964;SDS011;5023;53.554;9.964;2023-04-24T02:48:00;3.47;;;3.27;;
9964;SDS011;5023;53.554;9.964;2023-04-24T02:53:04;3.10;;;2.90;;
9964;SDS011;5023;53.554;9.964;2023-04-24T02:58:05;3.87;;;3.10;;
9964;SDS011;5023;53.554;9.964;2023-04-24T03:03:07;2.88;;;2.65;;
9964;SDS011;5023;53.554;9.964;2023-04-24T03:08:10;3.00;;;2.70;;
9964;SDS011;5023;53.554;9.964;2023-04-24T03:13:12;2.70;;;2.53;;
9964;SDS011;5023;53.554;9.964;2023-04-24T03:18:14;2.63;;;2.53;;
9964;SDS011;5023;53.554;9.964;2023-04-24T03:23:17;3.77;;;2.90;;
9964;SDS011;5023;53.554;9.964;2023-04-24T03:28:19;2.30;;;2.20;;
9964;SDS011;5023;53.554;9.964;2023-04-24T03:33:21;2.57;;;2.47;;
9964;SDS011;5023;53.554;9.964;2023-04-24T03:38:24;3.67;;;2.50;;
9964;SDS011;5023;53.554;9.964;2023-04-24T03:43:26;2.40;;;2.30;;
9964;SDS011;5023;53.554;9.964;2023-04-24T03:48:28;2.53;;;2.40;;
9964;SDS011;5023;53.554;9.964;2023-04-24T03:53:31;2.53;;;2.43;;
9964;SDS011;5023;53.554;9.964;2023-04-24T03:58:33;2.80;;;2.60;;
9964;SDS011;5023;53.554;9.964;2023-04-24T04:03:35;1.97;;;1.87;;
9964;SDS011;5023;53.554;9.964;2023-04-24T04:08:38;2.07;;;1.97;;
9964;SDS011;5023;53.554;9.964;2023-04-24T04:13:40;2.33;;;2.23;;
9964;SDS011;5023;53.554;9.964;2023-04-24T04:18:42;2.20;;;2.10;;
9964;SDS011;5023;53.554;9.964;2023-04-24T04:23:46;2.13;;;2.03;;
9964;SDS011;5023;53.554;9.964;2023-04-24T04:28:48;2.10;;;1.90;;
9964;SDS011;5023;53.554;9.964;2023-04-24T04:33:50;2.00;;;1.90;;
9964;SDS011;5023;53.554;9.964;2023-04-24T04:38:53;1.90;;;1.80;;
9964;SDS011;5023;53.554;9.964;2023-04-24T04:43:55;2.10;;;2.00;;
9964;SDS011;5023;53.554;9.964;2023-04-24T04:48:58;2.20;;;2.00;;
9964;SDS011;5023;53.554;9.964;2023-04-24T04:54:02;1.80;;;1.70;;
9964;SDS011;5023;53.554;9.964;2023-04-24T04:59:04;2.30;;;2.20;;
9964;SDS011;5023;53.554;9.964;2023-04-24T05:04:06;2.13;;;2.03;;
9964;SDS011;5023;53.554;9.964;2023-04-24T05:09:10;3.57;;;2.30;;
9964;SDS011;5023;53.554;9.964;2023-04-24T05:14:11;2.47;;;2.20;;
9964;SDS011;5023;53.554;9.964;2023-04-24T05:19:13;2.00;;;1.90;;
9964;SDS011;5023;53.554;9.964;2023-04-24T05:24:17;2.20;;;2.10;;
9964;SDS011;5023;53.554;9.964;2023-04-24T05:29:19;2.37;;;2.10;;
9964;SDS011;5023;53.554;9.964;2023-04-24T05:34:21;2.00;;;1.80;;
9964;SDS011;5023;53.554;9.964;2023-04-24T05:39:25;2.00;;;1.80;;
9964;SDS011;5023;53.554;9.964;2023-04-24T05:44:27;2.90;;;2.00;;
9964;SDS011;5023;53.554;9.964;2023-04-24T05:49:29;1.90;;;1.80;;
9964;SDS011;5023;53.554;9.964;2023-04-24T05:54:32;2.13;;;2.03;;
9964;SDS011;5023;53.554;9.964;2023-04-24T06:04:37;2.47;;;2.00;;
9964;SDS011;5023;53.554;9.964;2023-04-24T06:09:41;3.27;;;2.97;;
9964;SDS011;5023;53.554;9.964;2023-04-24T06:14:43;2.40;;;2.30;;
9964;SDS011;5023;53.554;9.964;2023-04-24T06:19:45;3.80;;;3.40;;
9964;SDS011;5023;53.554;9.964;2023-04-24T06:24:48;2.40;;;2.20;;
9964;SDS011;5023;53.554;9.964;2023-04-24T06:29:50;3.27;;;2.70;;
9964;SDS011;5023;53.554;9.964;2023-04-24T06:34:54;3.30;;;2.70;;
9964;SDS011;5023;53.554;9.964;2023-04-24T06:39:57;3.10;;;2.90;;
9964;SDS011;5023;53.554;9.964;2023-04-24T06:44:59;2.53;;;2.20;;
9964;SDS011;5023;53.554;9.964;2023-04-24T06:50:02;3.00;;;2.80;;
9964;SDS011;5023;53.554;9.964;2023-04-24T06:55:06;3.60;;;3.30;;
9964;SDS011;5023;53.554;9.964;2023-04-24T07:00:09;2.80;;;2.60;;
9964;SDS011;5023;53.554;9.964;2023-04-24T07:05:11;3.28;;;2.97;;
9964;SDS011;5023;53.554;9.964;2023-04-24T07:10:16;3.45;;;3.15;;
9964;SDS011;5023;53.554;9.964;2023-04-24T07:15:20;4.10;;;3.40;;
9964;SDS011;5023;53.554;9.964;2023-04-24T07:20:22;3.40;;;3.20;;
9964;SDS011;5023;53.554;9.964;2023-04-24T07:25:25;7.22;;;5.32;;
9964;SDS011;5023;53.554;9.964;2023-04-24T07:30:27;6.10;;;3.60;;
9964;SDS011;5023;53.554;9.964;2023-04-24T07:35:30;4.07;;;3.78;;
9964;SDS011;5023;53.554;9.964;2023-04-24T07:40:33;3.88;;;3.67;;
9964;SDS011;5023;53.554;9.964;2023-04-24T07:45:35;4.47;;;4.18;;
9964;SDS011;5023;53.554;9.964;2023-04-24T07:50:37;4.70;;;4.30;;
9964;SDS011;5023;53.554;9.964;2023-04-24T07:55:40;4.72;;;4.32;;
9964;SDS011;5023;53.554;9.964;2023-04-24T08:00:42;5.15;;;4.75;;
9964;SDS011;5023;53.554;9.964;2023-04-24T08:05:44;5.35;;;4.95;;
9964;SDS011;5023;53.554;9.964;2023-04-24T08:10:48;4.75;;;4.45;;
9964;SDS011;5023;53.554;9.964;2023-04-24T08:15:50;5.22;;;4.82;;
9964;SDS011;5023;53.554;9.964;2023-04-24T08:20:52;5.38;;;4.97;;
9964;SDS011;5023;53.554;9.964;2023-04-24T08:25:55;5.43;;;5.03;;
9964;SDS011;5023;53.554;9.964;2023-04-24T08:30:57;5.20;;;4.70;;
9964;SDS011;5023;53.554;9.964;2023-04-24T08:35:59;7.43;;;5.50;;
9964;SDS011;5023;53.554;9.964;2023-04-24T08:41:03;5.72;;;4.88;;
9964;SDS011;5023;53.554;9.964;2023-04-24T08:46:06;5.10;;;4.70;;
9964;SDS011;5023;53.554;9.964;2023-04-24T08:51:10;5.85;;;5.35;;
9964;SDS011;5023;53.554;9.964;2023-04-24T08:56:13;6.25;;;5.68;;
9964;SDS011;5023;53.554;9.964;2023-04-24T09:01:16;5.82;;;5.43;;
9964;SDS011;5023;53.554;9.964;2023-04-24T09:06:19;6.30;;;5.80;;
9964;SDS011;5023;53.554;9.964;2023-04-24T09:11:24;7.63;;;6.93;;
9964;SDS011;5023;53.554;9.964;2023-04-24T09:16:27;7.38;;;5.90;;
9964;SDS011;5023;53.554;9.964;2023-04-24T09:21:31;6.00;;;5.50;;
9964;SDS011;5023;53.554;9.964;2023-04-24T09:26:35;5.70;;;5.20;;
9964;SDS011;5023;53.554;9.964;2023-04-24T09:31:37;6.20;;;5.68;;
9964;SDS011;5023;53.554;9.964;2023-04-24T09:36:40;5.50;;;5.00;;
9964;SDS011;5023;53.554;9.964;2023-04-24T09:41:45;7.97;;;5.63;;
9964;SDS011;5023;53.554;9.964;2023-04-24T09:46:49;5.85;;;5.38;;
9964;SDS011;5023;53.554;9.964;2023-04-24T09:51:52;6.07;;;5.57;;
9964;SDS011;5023;53.554;9.964;2023-04-24T09:57:05;6.88;;;6.18;;
9964;SDS011;5023;53.554;9.964;2023-04-24T10:02:16;7.22;;;6.63;;
9964;SDS011;5023;53.554;9.964;2023-04-24T10:07:18;7.22;;;6.63;;
9964;SDS011;5023;53.554;9.964;2023-04-24T10:12:22;9.90;;;7.65;;
9964;SDS011;5023;53.554;9.964;2023-04-24T10:17:25;8.65;;;7.95;;
9964;SDS011;5023;53.554;9.964;2023-04-24T10:22:28;8.70;;;7.90;;
9964;SDS011;5023;53.554;9.964;2023-04-24T10:27:32;12.20;;;9.57;;
9964;SDS011;5023;53.554;9.964;2023-04-24T10:32:36;10.68;;;9.60;;
9964;SDS011;5023;53.554;9.964;2023-04-24T10:37:39;10.38;;;9.18;;
9964;SDS011;5023;53.554;9.964;2023-04-24T10:42:53;11.27;;;9.75;;
9964;SDS011;5023;53.554;9.964;2023-04-24T10:47:58;11.18;;;10.07;;
9964;SDS011;5023;53.554;9.964;2023-04-24T10:53:06;11.57;;;10.43;;
9964;SDS011;5023;53.554;9.964;2023-04-24T10:58:14;10.07;;;9.07;;
9964;SDS011;5023;53.554;9.964;2023-04-24T11:03:24;9.77;;;8.77;;
9964;SDS011;5023;53.554;9.964;2023-04-24T11:08:28;10.57;;;9.57;;
9964;SDS011;5023;53.554;9.964;2023-04-24T11:19:06;10.60;;;9.60;;
9964;SDS011;5023;53.554;9.964;2023-04-24T11:24:23;9.18;;;8.18;;
9964;SDS011;5023;53.554;9.964;2023-04-24T11:29:40;9.70;;;8.70;;
9964;SDS011;5023;53.554;9.964;2023-04-24T11:34:45;9.40;;;8.48;;
9964;SDS011;5023;53.554;9.964;2023-04-24T11:39:49;11.63;;;8.55;;
9964;SDS011;5023;53.554;9.964;2023-04-24T11:44:54;12.48;;;11.18;;
9964;SDS011;5023;53.554;9.964;2023-04-24T11:49:57;11.15;;;10.10;;
9964;SDS011;5023;53.554;9.964;2023-04-24T11:54:59;8.20;;;7.50;;
9964;SDS011;5023;53.554;9.964;2023-04-24T12:00:03;7.75;;;7.05;;
9964;SDS011;5023;53.554;9.964;2023-04-24T12:05:06;8.93;;;8.13;;
9964;SDS011;5023;53.554;9.964;2023-04-24T12:10:09;10.27;;;8.73;;
9964;SDS011;5023;53.554;9.964;2023-04-24T12:15:12;8.38;;;7.57;;
9964;SDS011;5023;53.554;9.964;2023-04-24T12:20:14;8.57;;;7.78;;
9964;SDS011;5023;53.554;9.964;2023-04-24T12:25:17;7.60;;;6.90;;
9964;SDS011;5023;53.554;9.964;2023-04-24T12:30:21;7.47;;;6.85;;
9964;SDS011;5023;53.554;9.964;2023-04-24T12:35:29;40.10;;;32.30;;
9964;SDS011;5023;53.554;9.964;2023-04-24T12:40:33;7.82;;;7.13;;
9964;SDS011;5023;53.554;9.964;2023-04-24T12:45:36;8.05;;;7.35;;
9964;SDS011;5023;53.554;9.964;2023-04-24T12:50:38;9.02;;;7.60;;
9964;SDS011;5023;53.554;9.964;2023-04-24T12:55:40;8.00;;;7.30;;
9964;SDS011;5023;53.554;9.964;2023-04-24T13:00:44;11.80;;;10.75;;
9964;SDS011;5023;53.554;9.964;2023-04-24T13:05:46;7.90;;;7.25;;
9964;SDS011;5023;53.554;9.964;2023-04-24T13:10:48;7.65;;;6.95;;
9964;SDS011;5023;53.554;9.964;2023-04-24T13:15:52;7.25;;;6.65;;
9964;SDS011;5023;53.554;9.964;2023-04-24T13:20:54;7.28;;;6.57;;
9964;SDS011;5023;53.554;9.964;2023-04-24T13:25:56;7.32;;;5.82;;
9964;SDS011;5023;53.554;9.964;2023-04-24T13:31:00;6.32;;;5.72;;
9964;SDS011;5023;53.554;9.964;2023-04-24T13:36:01;5.88;;;5.38;;
9964;SDS011;5023;53.554;9.964;2023-04-24T13:41:04;7.72;;;6.93;;
9964;SDS011;5023;53.554;9.964;2023-04-24T13:46:07;6.50;;;5.90;;
9964;SDS011;5023;53.554;9.964;2023-04-24T13:51:09;6.28;;;5.68;;
9964;SDS011;5023;53.554;9.964;2023-04-24T13:56:11;6.50;;;5.90;;
9964;SDS011;5023;53.554;9.964;2023-04-24T14:01:15;5.57;;;5.05;;
9964;SDS011;5023;53.554;9.964;2023-04-24T14:06:17;6.05;;;5.22;;
9964;SDS011;5023;53.554;9.964;2023-04-24T14:11:19;6.05;;;5.57;;
9964;SDS011;5023;53.554;9.964;2023-04-24T14:16:22;6.65;;;5.60;;
9964;SDS011;5023;53.554;9.964;2023-04-24T14:21:24;7.30;;;6.70;;
9964;SDS011;5023;53.554;9.964;2023-04-24T14:26:26;5.70;;;5.30;;
9964;SDS011;5023;53.554;9.964;2023-04-24T14:31:30;6.00;;;5.50;;
9964;SDS011;5023;53.554;9.964;2023-04-24T14:36:32;6.05;;;5.55;;
9964;SDS011;5023;53.554;9.964;2023-04-24T14:41:33;6.50;;;6.03;;
9964;SDS011;5023;53.554;9.964;2023-04-24T14:46:38;7.88;;;7.28;;
9964;SDS011;5023;53.554;9.964;2023-04-24T14:51:40;7.77;;;7.17;;
9964;SDS011;5023;53.554;9.964;2023-04-24T14:56:43;8.23;;;7.40;;
9964;SDS011;5023;53.554;9.964;2023-04-24T15:01:46;9.10;;;8.20;;
9964;SDS011;5023;53.554;9.964;2023-04-24T15:06:49;8.00;;;7.30;;
9964;SDS011;5023;53.554;9.964;2023-04-24T15:11:51;8.13;;;7.47;;
9964;SDS011;5023;53.554;9.964;2023-04-24T15:16:55;8.47;;;7.73;;
9964;SDS011;5023;53.554;9.964;2023-04-24T15:21:56;4.70;;;4.40;;
9964;SDS011;5023;53.554;9.964;2023-04-24T15:26:58;4.50;;;4.10;;
9964;SDS011;5023;53.554;9.964;2023-04-24T15:32:03;4.00;;;3.70;;
9964;SDS011;5023;53.554;9.964;2023-04-24T15:37:05;3.53;;;3.23;;
9964;SDS011;5023;53.554;9.964;2023-04-24T15:42:07;4.50;;;4.20;;
9964;SDS011;5023;53.554;9.964;2023-04-24T15:47:10;5.43;;;4.67;;
9964;SDS011;5023;53.554;9.964;2023-04-24T15:52:14;6.60;;;5.90;;
9964;SDS011;5023;53.554;9.964;2023-04-24T15:57:15;15.40;;;12.20;;
9964;SDS011;5023;53.554;9.964;2023-04-24T16:02:19;10.17;;;7.27;;
9964;SDS011;5023;53.554;9.964;2023-04-24T16:07:21;8.67;;;7.17;;
9964;SDS011;5023;53.554;9.964;2023-04-24T16:12:24;7.60;;;6.90;;
9964;SDS011;5023;53.554;9.964;2023-04-24T16:17:28;6.57;;;5.97;;
9964;SDS011;5023;53.554;9.964;2023-04-24T16:22:30;5.40;;;4.90;;
9964;SDS011;5023;53.554;9.964;2023-04-24T16:27:31;5.60;;;5.10;;
9964;SDS011;5023;53.554;9.964;2023-04-24T16:32:35;7.20;;;5.43;;
9964;SDS011;5023;53.554;9.964;2023-04-24T16:37:37;5.43;;;4.93;;
9964;SDS011;5023;53.554;9.964;2023-04-24T16:42:40;4.50;;;4.10;;
9964;SDS011;5023;53.554;9.964;2023-04-24T16:47:44;4.53;;;4.10;;
9964;SDS011;5023;53.554;9.964;2023-04-24T16:52:46;5.70;;;4.60;;
9964;SDS011;5023;53.554;9.964;2023-04-24T16:57:48;5.07;;;4.40;;
9964;SDS011;5023;53.554;9.964;2023-04-24T17:02:51;7.47;;;5.20;;
9964;SDS011;5023;53.554;9.964;2023-04-24T17:07:53;5.33;;;4.80;;
9964;SDS011;5023;53.554;9.964;2023-04-24T17:12:55;6.80;;;6.10;;
9964;SDS011;5023;53.554;9.964;2023-04-24T17:18:00;6.73;;;5.33;;
9964;SDS011;5023;53.554;9.964;2023-04-24T17:23:03;7.10;;;5.80;;
9964;SDS011;5023;53.554;9.964;2023-04-24T17:28:06;5.70;;;5.20;;
9964;SDS011;5023;53.554;9.964;2023-04-24T17:33:17;6.03;;;5.43;;
9964;SDS011;5023;53.554;9.964;2023-04-24T17:38:19;6.80;;;5.60;;
9964;SDS011;5023;53.554;9.964;2023-04-24T17:43:22;8.33;;;6.10;;
9964;SDS011;5023;53.554;9.964;2023-04-24T17:48:25;6.17;;;5.53;;
9964;SDS011;5023;53.554;9.964;2023-04-24T17:53:27;8.60;;;6.33;;
9964;SDS011;5023;53.554;9.964;2023-04-24T17:58:29;5.77;;;5.20;;
9964;SDS011;5023;53.554;9.964;2023-04-24T18:03:35;7.17;;;5.67;;
9964;SDS011;5023;53.554;9.964;2023-04-24T18:08:37;9.00;;;5.83;;
9964;SDS011;5023;53.554;9.964;2023-04-24T18:13:39;8.33;;;5.67;;
9964;SDS011;5023;53.554;9.964;2023-04-24T18:18:42;8.50;;;5.67;;
9964;SDS011;5023;53.554;9.964;2023-04-24T18:23:44;7.73;;;5.90;;
9964;SDS011;5023;53.554;9.964;2023-04-24T18:28:46;9.53;;;5.10;;
9964;SDS011;5023;53.554;9.964;2023-04-24T18:33:49;4.70;;;3.73;;
9964;SDS011;5023;53.554;9.964;2023-04-24T18:38:53;7.50;;;3.80;;
9964;SDS011;5023;53.554;9.964;2023-04-24T18:43:55;9.47;;;3.70;;
9964;SDS011;5023;53.554;9.964;2023-04-24T18:48:59;6.67;;;3.57;;
9964;SDS011;5023;53.554;9.964;2023-04-24T18:54:01;5.97;;;2.90;;
9964;SDS011;5023;53.554;9.964;2023-04-24T18:59:04;3.07;;;2.80;;
9964;SDS011;5023;53.554;9.964;2023-04-24T19:04:07;5.03;;;2.40;;
9964;SDS011;5023;53.554;9.964;2023-04-24T19:09:09;4.77;;;2.87;;
9964;SDS011;5023;53.554;9.964;2023-04-24T19:14:11;4.40;;;2.30;;
9964;SDS011;5023;53.554;9.964;2023-04-24T19:19:14;3.57;;;2.63;;
9964;SDS011;5023;53.554;9.964;2023-04-24T19:24:16;4.63;;;3.30;;
9964;SDS011;5023;53.554;9.964;2023-04-24T19:29:20;4.03;;;2.93;;
9964;SDS011;5023;53.554;9.964;2023-04-24T19:34:23;7.47;;;3.37;;
9964;SDS011;5023;53.554;9.964;2023-04-24T19:39:26;3.60;;;3.30;;
9964;SDS011;5023;53.554;9.964;2023-04-24T19:44:31;4.80;;;3.07;;
9964;SDS011;5023;53.554;9.964;2023-04-24T19:49:34;4.47;;;3.47;;
9964;SDS011;5023;53.554;9.964;2023-04-24T19:54:36;5.93;;;3.50;;
9964;SDS011;5023;53.554;9.964;2023-04-24T19:59:38;4.60;;;3.57;;
9964;SDS011;5023;53.554;9.964;2023-04-24T20:04:41;5.13;;;4.50;;
9964;SDS011;5023;53.554;9.964;2023-04-24T20:09:43;5.03;;;3.83;;
9964;SDS011;5023;53.554;9.964;2023-04-24T20:14:45;6.13;;;3.50;;
9964;SDS011;5023;53.554;9.964;2023-04-24T20:19:49;6.03;;;3.90;;
9964;SDS011;5023;53.554;9.964;2023-04-24T20:24:51;6.07;;;4.30;;
9964;SDS011;5023;53.554;9.964;2023-04-24T20:29:53;5.57;;;4.03;;
9964;SDS011;5023;53.554;9.964;2023-04-24T20:34:57;7.00;;;4.90;;
9964;SDS011;5023;53.554;9.964;2023-04-24T20:39:59;8.40;;;3.87;;
9964;SDS011;5023;53.554;9.964;2023-04-24T20:45:05;6.50;;;4.43;;
9964;SDS011;5023;53.554;9.964;2023-04-24T20:50:09;4.83;;;3.63;;
9964;SDS011;5023;53.554;9.964;2023-04-24T20:55:12;4.27;;;3.30;;
9964;SDS011;5023;53.554;9.964;2023-04-24T21:00:14;6.93;;;3.63;;
9964;SDS011;5023;53.554;9.964;2023-04-24T21:05:19;5.80;;;4.07;;
9964;SDS011;5023;53.554;9.964;2023-04-24T21:10:21;5.60;;;3.87;;
9964;SDS011;5023;53.554;9.964;2023-04-24T21:15:24;4.73;;;3.43;;
9964;SDS011;5023;53.554;9.964;2023-04-24T21:20:37;5.77;;;3.60;;
9964;SDS011;5023;53.554;9.964;2023-04-24T21:25:40;5.07;;;4.23;;
9964;SDS011;5023;53.554;9.964;2023-04-24T21:30:42;6.03;;;4.63;;
9964;SDS011;5023;53.554;9.964;2023-04-24T21:35:46;5.40;;;3.67;;
9964;SDS011;5023;53.554;9.964;2023-04-24T21:40:48;5.53;;;4.00;;
9964;SDS011;5023;53.554;9.964;2023-04-24T21:45:50;12.20;;;7.03;;
9964;SDS011;5023;53.554;9.964;2023-04-24T21:50:54;5.20;;;4.03;;
9964;SDS011;5023;53.554;9.964;2023-04-24T21:55:56;5.07;;;3.90;;
9964;SDS011;5023;53.554;9.964;2023-04-24T22:00:58;6.77;;;4.57;;
9964;SDS011;5023;53.554;9.964;2023-04-24T22:06:01;13.00;;;9.30;;
9964;SDS011;5023;53.554;9.964;2023-04-24T22:11:03;14.90;;;10.30;;
9964;SDS011;5023;53.554;9.964;2023-04-24T22:16:06;6.87;;;5.13;;
9964;SDS011;5023;53.554;9.964;2023-04-24T22:21:09;13.67;;;9.43;;
9964;SDS011;5023;53.554;9.964;2023-04-24T22:26:11;8.67;;;6.57;;
9964;SDS011;5023;53.554;9.964;2023-04-24T22:31:13;6.60;;;5.73;;
9964;SDS011;5023;53.554;9.964;2023-04-24T22:36:17;6.43;;;5.30;;
9964;SDS011;5023;53.554;9.964;2023-04-24T22:41:21;7.43;;;5.73;;
9964;SDS011;5023;53.554;9.964;2023-04-24T22:46:23;7.57;;;5.33;;
9964;SDS011;5023;53.554;9.964;2023-04-24T22:51:27;8.03;;;6.00;;
9964;SDS011;5023;53.554;9.964;2023-04-24T22:56:32;8.27;;;4.70;;
9964;SDS011;5023;53.554;9.964;2023-04-24T23:01:35;6.70;;;5.07;;
9964;SDS011;5023;53.554;9.964;2023-04-24T23:06:38;8.27;;;6.43;;
9964;SDS011;5023;53.554;9.964;2023-04-24T23:11:40;7.43;;;6.17;;
9964;SDS011;5023;53.554;9.964;2023-04-24T23:16:42;5.87;;;5.10;;
9964;SDS011;5023;53.554;9.964;2023-04-24T23:21:46;8.10;;;5.33;;
9964;SDS011;5023;53.554;9.964;2023-04-24T23:26:49;7.67;;;4.90;;
9964;SDS011;5023;53.554;9.964;2023-04-24T23:31:54;5.70;;;4.53;;
9964;SDS011;5023;53.554;9.964;2023-04-24T23:36:57;6.17;;;4.07;;
9964;SDS011;5023;53.554;9.964;2023-04-24T23:41:59;6.20;;;4.33;;
9964;SDS011;5023;53.554;9.964;2023-04-24T23:47:02;4.53;;;4.13;;
9964;SDS011;5023;53.554;9.964;2023-04-24T23:52:06;4.33;;;3.93;;
9964;SDS011;5023;53.554;9.964;2023-04-24T23:57:08;5.77;;;4.50;;
